Accueil
METAR-TAF:

METAR-TAF

Aéroports :

Salem-Leckrone Airport

Salem, Illinois, États-Unis

latitude: 38-38-34N, longitude: 088-57-51W, altitude: 175 m

Observation

Le bulletin a été fait il y a 27 minutes, à 02:15 UTC
Vent calme
Température 21°C
Humidité 78%
Pression 1008 hPa
Visibilité: 16.1 km
Nuages fragmentés à une hauteur de 4300 ft
Ciel couvert à une hauteur de 5000 ft

METAR: KSLO 280215Z AUTO 00000KT 10SM BKN043 OVC050 21/17 A2977 RMK AO2 T02100174

Heure: 21:42 (02:42 UTC)


TAF: absent

Observations et prévisions météorologiques de plus de 4000 aéroports (messages METAR et TAF).

Les stations disponibles sont représentées par des disques jaunes et rouges sur la carte.

Passer la souris dessus pour voir le nom de la station.

Cliquer dessus pour voir les observations et prévisions météorologiques.

Pour changer de carte: cliquez sur les boutons verts avec une croix noire pour zoomer, sur le bouton vert avec un tiret pour effectuer un zoom arrière, ou sur les flèches vertes pour les cartes adjacentes.


METAR-TAF: